createdAt,value
2023-03-19T00:00:06.635Z,0.00
2023-03-19T00:01:06.643Z,0.00
2023-03-19T00:02:17.119Z,0.00
2023-03-19T00:03:06.767Z,0.00
2023-03-19T00:04:06.588Z,0.00
2023-03-19T00:05:06.575Z,0.00
2023-03-19T00:06:06.572Z,0.00
2023-03-19T00:07:06.557Z,0.00
2023-03-19T00:08:06.570Z,0.00
2023-03-19T00:09:06.541Z,0.00
2023-03-19T00:10:06.520Z,0.00
2023-03-19T00:11:06.511Z,0.00
2023-03-19T00:12:06.497Z,0.00
2023-03-19T00:13:06.492Z,0.00
2023-03-19T00:14:06.487Z,0.00
2023-03-19T00:15:06.466Z,0.00
2023-03-19T00:16:06.474Z,0.00
2023-03-19T00:17:06.463Z,0.00
2023-03-19T00:18:06.448Z,0.00
2023-03-19T00:19:06.425Z,0.00
2023-03-19T00:20:06.416Z,0.00
2023-03-19T00:21:06.410Z,0.00
2023-03-19T00:22:06.392Z,0.00
2023-03-19T00:23:06.388Z,0.00
2023-03-19T00:24:06.401Z,0.00
2023-03-19T00:25:06.364Z,0.00
2023-03-19T00:26:06.348Z,0.00
2023-03-19T00:27:06.339Z,0.00
2023-03-19T00:28:06.332Z,0.00
2023-03-19T00:29:06.316Z,0.00
2023-03-19T00:30:06.325Z,0.00
2023-03-19T00:31:06.315Z,0.00
2023-03-19T00:32:06.283Z,0.00
2023-03-19T00:33:06.372Z,0.00
2023-03-19T00:34:06.259Z,0.00
2023-03-19T00:35:06.337Z,0.00
2023-03-19T00:36:06.272Z,0.00
2023-03-19T00:37:06.225Z,0.00
2023-03-19T00:38:06.245Z,0.00
2023-03-19T00:39:06.208Z,0.00
2023-03-19T00:40:06.217Z,0.00
2023-03-19T00:41:06.187Z,0.00
2023-03-19T00:42:06.178Z,0.00
2023-03-19T00:43:06.164Z,0.00
2023-03-19T00:44:06.158Z,0.00
2023-03-19T00:45:06.136Z,0.00
2023-03-19T00:46:06.224Z,0.00
2023-03-19T00:47:06.119Z,0.00
2023-03-19T00:48:06.102Z,0.00
2023-03-19T00:49:06.099Z,0.00
2023-03-19T00:50:06.081Z,0.00
2023-03-19T00:51:06.103Z,0.00
2023-03-19T00:52:06.058Z,0.00
2023-03-19T00:53:06.044Z,0.00
2023-03-19T00:54:06.040Z,0.00
2023-03-19T00:55:06.025Z,0.00
2023-03-19T00:56:06.037Z,0.00
2023-03-19T00:57:06.014Z,0.00
2023-03-19T00:58:05.988Z,0.00
2023-03-19T00:59:05.981Z,0.00
2023-03-19T01:00:05.975Z,0.00
2023-03-19T01:01:06.009Z,0.00
2023-03-19T01:02:05.966Z,0.00
2023-03-19T01:03:07.975Z,0.00
2023-03-19T01:04:05.966Z,0.00
2023-03-19T01:05:05.905Z,0.00
2023-03-19T01:06:05.901Z,0.00
2023-03-19T01:07:06.900Z,0.00
2023-03-19T01:08:05.874Z,0.00
2023-03-19T01:09:05.860Z,0.00
2023-03-19T01:10:05.849Z,0.00
2023-03-19T01:11:05.837Z,0.00
2023-03-19T01:12:05.850Z,0.00
2023-03-19T01:13:05.814Z,0.00
2023-03-19T01:14:05.809Z,0.00
2023-03-19T01:15:05.797Z,0.00
2023-03-19T01:16:05.793Z,0.00
2023-03-19T01:17:05.784Z,0.00
2023-03-19T01:18:05.766Z,0.00
2023-03-19T01:19:05.747Z,0.00
2023-03-19T01:20:05.736Z,0.00
2023-03-19T01:21:05.725Z,0.00
2023-03-19T01:22:05.712Z,0.00
2023-03-19T01:23:05.705Z,0.00
2023-03-19T01:24:05.691Z,0.00
2023-03-19T01:25:05.685Z,0.00
2023-03-19T01:26:05.695Z,0.00
2023-03-19T01:27:05.694Z,0.00
2023-03-19T01:28:05.684Z,0.00
2023-03-19T01:29:05.645Z,0.00
2023-03-19T01:30:05.626Z,0.00
2023-03-19T01:31:05.716Z,0.00
2023-03-19T01:32:05.597Z,0.00
2023-03-19T01:33:05.662Z,0.00
2023-03-19T01:34:05.594Z,0.00
2023-03-19T01:35:05.572Z,0.00
2023-03-19T01:36:05.694Z,0.00
2023-03-19T01:37:05.577Z,0.00
2023-03-19T01:38:05.570Z,0.00
2023-03-19T01:39:05.526Z,0.00
2023-03-19T01:40:05.552Z,0.00
2023-03-19T01:41:05.499Z,0.00
2023-03-19T01:42:05.488Z,0.00
2023-03-19T01:43:05.481Z,0.00
2023-03-19T01:44:05.493Z,0.00
2023-03-19T01:45:05.454Z,0.00
2023-03-19T01:46:05.521Z,0.00
2023-03-19T01:47:05.433Z,0.00
2023-03-19T01:48:05.426Z,0.00
2023-03-19T01:49:05.405Z,0.00
2023-03-19T01:50:05.404Z,0.00
2023-03-19T01:51:05.383Z,0.00
2023-03-19T01:52:05.375Z,0.00
2023-03-19T01:53:05.374Z,0.00
2023-03-19T01:54:05.358Z,0.00
2023-03-19T01:55:05.345Z,0.00
2023-03-19T01:56:05.339Z,0.00
2023-03-19T01:57:05.316Z,0.00
2023-03-19T01:58:05.309Z,0.00
2023-03-19T01:59:05.291Z,0.00
2023-03-19T02:00:05.318Z,0.00
2023-03-19T02:01:05.279Z,0.00
2023-03-19T02:02:05.286Z,0.00
2023-03-19T02:03:05.250Z,0.00
2023-03-19T02:04:05.303Z,0.00
2023-03-19T02:05:05.228Z,0.00
2023-03-19T02:06:05.219Z,0.00
2023-03-19T02:07:05.208Z,0.00
2023-03-19T02:08:05.198Z,0.00
2023-03-19T02:09:05.178Z,0.00
2023-03-19T02:10:05.169Z,0.00
2023-03-19T02:11:05.162Z,0.00
2023-03-19T02:12:05.144Z,0.00
2023-03-19T02:13:05.179Z,0.00
2023-03-19T02:14:05.123Z,0.00
2023-03-19T02:15:05.110Z,0.00
2023-03-19T02:16:05.197Z,0.00
2023-03-19T02:17:05.087Z,0.00
2023-03-19T02:18:05.091Z,0.00
2023-03-19T02:19:05.064Z,0.00
2023-03-19T02:20:05.063Z,0.00
2023-03-19T02:21:05.041Z,0.00
2023-03-19T02:22:05.037Z,0.00
2023-03-19T02:23:05.021Z,0.00
2023-03-19T02:24:05.017Z,0.00
2023-03-19T02:25:05.020Z,0.00
2023-03-19T02:26:04.986Z,0.00
2023-03-19T02:27:04.974Z,0.00
2023-03-19T02:28:04.965Z,0.00
2023-03-19T02:29:04.954Z,0.00
2023-03-19T02:30:04.946Z,0.00
2023-03-19T02:31:04.958Z,0.00
2023-03-19T02:32:04.947Z,0.00
2023-03-19T02:33:04.961Z,0.00
2023-03-19T02:34:04.895Z,0.00
2023-03-19T02:35:04.886Z,0.00
2023-03-19T02:36:04.919Z,0.00
2023-03-19T02:37:04.870Z,0.00
2023-03-19T02:38:04.861Z,0.00
2023-03-19T02:39:04.858Z,0.00
2023-03-19T02:40:04.828Z,0.00
2023-03-19T02:41:04.825Z,0.00
2023-03-19T02:42:04.811Z,0.00
2023-03-19T02:43:04.812Z,0.00
2023-03-19T02:44:04.793Z,0.00
2023-03-19T02:45:04.770Z,0.00
2023-03-19T02:46:04.762Z,0.00
2023-03-19T02:47:04.754Z,0.00
2023-03-19T02:48:04.760Z,0.00
2023-03-19T02:49:04.726Z,0.00
2023-03-19T02:50:04.727Z,0.00
2023-03-19T02:51:04.704Z,0.00
2023-03-19T02:52:04.693Z,0.00
2023-03-19T02:53:04.686Z,0.00
2023-03-19T02:54:04.676Z,0.00
2023-03-19T02:55:04.665Z,0.00
2023-03-19T02:56:04.648Z,0.00
2023-03-19T02:57:04.677Z,0.00
2023-03-19T02:58:04.627Z,0.00
2023-03-19T02:59:04.635Z,0.00
2023-03-19T03:00:04.604Z,0.00
2023-03-19T03:01:04.680Z,0.00
2023-03-19T03:02:04.695Z,0.00
2023-03-19T03:03:04.576Z,0.00
2023-03-19T03:04:04.587Z,0.00
2023-03-19T03:05:04.558Z,0.00
2023-03-19T03:06:04.557Z,0.00
2023-03-19T03:07:04.530Z,0.00
2023-03-19T03:08:04.522Z,0.00
2023-03-19T03:09:04.525Z,0.00
2023-03-19T03:10:04.504Z,0.00
2023-03-19T03:11:04.491Z,0.00
2023-03-19T03:12:04.483Z,0.00
2023-03-19T03:13:04.465Z,0.00
2023-03-19T03:14:04.461Z,0.00
2023-03-19T03:15:04.451Z,0.00
2023-03-19T03:16:04.478Z,0.00
2023-03-19T03:17:04.421Z,0.00
2023-03-19T03:18:04.416Z,0.00
2023-03-19T03:19:04.407Z,0.00
2023-03-19T03:20:04.418Z,0.00
2023-03-19T03:21:04.382Z,0.00
2023-03-19T03:22:04.373Z,0.00
2023-03-19T03:23:04.362Z,0.00
2023-03-19T03:24:04.362Z,0.00
2023-03-19T03:25:04.342Z,0.00
2023-03-19T03:26:04.330Z,0.00
2023-03-19T03:27:04.317Z,0.00
2023-03-19T03:28:04.308Z,0.00
2023-03-19T03:29:04.290Z,0.00
2023-03-19T03:30:04.280Z,0.00
2023-03-19T03:31:04.272Z,0.00
2023-03-19T03:32:04.283Z,0.00
2023-03-19T03:33:04.346Z,0.00
2023-03-19T03:34:04.239Z,0.00
2023-03-19T03:35:04.227Z,0.00
2023-03-19T03:36:04.256Z,0.00
2023-03-19T03:37:04.203Z,0.00
2023-03-19T03:38:04.203Z,0.00
2023-03-19T03:39:04.217Z,0.00
2023-03-19T03:40:04.168Z,0.00
2023-03-19T03:41:04.165Z,0.00
2023-03-19T03:42:04.146Z,0.00
2023-03-19T03:43:04.137Z,0.00
2023-03-19T03:44:04.125Z,0.00
2023-03-19T03:45:04.112Z,0.00
2023-03-19T03:46:04.166Z,0.00
2023-03-19T03:47:04.100Z,0.00
2023-03-19T03:48:04.085Z,0.00
2023-03-19T03:49:04.074Z,0.00
2023-03-19T03:50:04.065Z,0.00
2023-03-19T03:51:04.051Z,0.00
2023-03-19T03:52:04.062Z,0.00
2023-03-19T03:53:04.029Z,0.00
2023-03-19T03:54:04.015Z,0.00
2023-03-19T03:55:04.005Z,0.00
2023-03-19T03:56:03.993Z,0.00
2023-03-19T03:57:03.992Z,0.00
2023-03-19T03:58:03.972Z,0.00
2023-03-19T03:59:03.959Z,0.00
2023-03-19T04:00:03.955Z,0.00
2023-03-19T04:01:03.944Z,0.00
2023-03-19T04:02:04.016Z,0.00
2023-03-19T04:03:04.033Z,0.00
2023-03-19T04:04:03.908Z,0.00
2023-03-19T04:05:03.896Z,0.00
2023-03-19T04:06:03.882Z,0.00
2023-03-19T04:07:03.880Z,0.00
2023-03-19T04:08:03.901Z,0.00
2023-03-19T04:09:03.850Z,0.00
2023-03-19T04:10:03.838Z,0.00
2023-03-19T04:11:03.834Z,0.00
2023-03-19T04:12:03.822Z,0.00
2023-03-19T04:13:03.806Z,0.00
2023-03-19T04:14:03.793Z,0.00
2023-03-19T04:15:03.784Z,0.00
2023-03-19T04:16:03.769Z,0.00
2023-03-19T04:17:03.764Z,0.00
2023-03-19T04:18:03.748Z,0.00
2023-03-19T04:19:03.743Z,0.00
2023-03-19T04:20:03.728Z,0.00
2023-03-19T04:21:03.724Z,0.00
2023-03-19T04:22:03.713Z,0.00
2023-03-19T04:23:03.694Z,0.00
2023-03-19T04:24:03.716Z,0.00
2023-03-19T04:25:03.679Z,0.00
2023-03-19T04:26:03.663Z,0.00
2023-03-19T04:27:03.653Z,0.00
2023-03-19T04:28:03.642Z,0.00
2023-03-19T04:29:03.628Z,0.00
2023-03-19T04:30:03.617Z,0.00
2023-03-19T04:31:03.659Z,0.00
2023-03-19T04:32:03.602Z,0.00
2023-03-19T04:33:03.689Z,0.00
2023-03-19T04:34:03.581Z,0.00
2023-03-19T04:35:03.580Z,0.00
2023-03-19T04:36:03.632Z,0.00
2023-03-19T04:37:03.539Z,0.00
2023-03-19T04:38:03.548Z,0.00
2023-03-19T04:39:03.525Z,0.00
2023-03-19T04:40:03.536Z,0.00
2023-03-19T04:41:03.494Z,0.00
2023-03-19T04:42:03.483Z,0.00
2023-03-19T04:43:03.470Z,0.00
2023-03-19T04:44:03.464Z,0.00
2023-03-19T04:45:03.452Z,0.00
2023-03-19T04:46:03.475Z,0.00
2023-03-19T04:47:03.429Z,0.00
2023-03-19T04:48:03.417Z,0.00
2023-03-19T04:49:03.404Z,0.00
2023-03-19T04:50:03.393Z,0.00
2023-03-19T04:51:03.384Z,0.00
2023-03-19T04:52:03.375Z,0.00
2023-03-19T04:53:03.377Z,0.00
2023-03-19T04:54:03.346Z,0.00
2023-03-19T04:55:03.350Z,0.00
2023-03-19T04:56:03.369Z,0.00
2023-03-19T04:57:03.342Z,0.00
2023-03-19T04:58:03.317Z,0.00
2023-03-19T04:59:03.292Z,0.00
2023-03-19T05:00:03.296Z,0.00
2023-03-19T05:01:03.291Z,0.00
2023-03-19T05:02:03.262Z,0.00
2023-03-19T05:03:03.258Z,0.00
2023-03-19T05:04:03.275Z,0.00
2023-03-19T05:05:03.237Z,0.00
2023-03-19T05:06:03.219Z,0.00
2023-03-19T05:07:03.204Z,0.00
2023-03-19T05:08:03.198Z,0.00
2023-03-19T05:09:03.184Z,0.00
2023-03-19T05:10:03.194Z,0.00
2023-03-19T05:11:03.189Z,0.00
2023-03-19T05:12:03.175Z,0.00
2023-03-19T05:13:03.142Z,0.00
2023-03-19T05:14:03.134Z,0.00
2023-03-19T05:15:03.115Z,0.00
2023-03-19T05:16:03.170Z,0.00
2023-03-19T05:17:03.100Z,0.00
2023-03-19T05:18:03.085Z,0.00
2023-03-19T05:19:03.071Z,0.00
2023-03-19T05:20:03.066Z,0.00
2023-03-19T05:21:03.049Z,4.00
2023-03-19T05:22:03.038Z,4.00
2023-03-19T05:23:03.027Z,4.00
2023-03-19T05:24:03.022Z,4.00
2023-03-19T05:25:03.013Z,4.00
2023-03-19T05:26:03.017Z,4.00
2023-03-19T05:27:02.985Z,4.00
2023-03-19T05:28:02.995Z,4.00
2023-03-19T05:29:02.962Z,4.00
2023-03-19T05:30:03.054Z,4.00
2023-03-19T05:31:02.967Z,4.00
2023-03-19T05:32:02.971Z,4.00
2023-03-19T05:33:05.052Z,8.00
2023-03-19T05:34:02.911Z,4.00
2023-03-19T05:35:02.898Z,8.00
2023-03-19T05:36:02.968Z,12.00
2023-03-19T05:37:02.869Z,8.00
2023-03-19T05:38:02.867Z,12.00
2023-03-19T05:39:02.851Z,16.00
2023-03-19T05:40:02.838Z,16.00
2023-03-19T05:41:02.828Z,20.00
2023-03-19T05:42:02.837Z,24.00
2023-03-19T05:43:02.806Z,24.00
2023-03-19T05:44:02.824Z,32.00
2023-03-19T05:45:02.807Z,36.00
2023-03-19T05:46:02.821Z,40.00
2023-03-19T05:47:02.767Z,52.00
2023-03-19T05:48:02.748Z,56.00
2023-03-19T05:49:04.758Z,68.00
2023-03-19T05:50:02.728Z,80.00
2023-03-19T05:51:02.743Z,88.00
2023-03-19T05:52:02.717Z,108.00
2023-03-19T05:53:04.698Z,124.00
2023-03-19T05:54:02.689Z,148.00
2023-03-19T05:55:02.674Z,168.00
2023-03-19T05:56:02.660Z,192.00
2023-03-19T05:57:03.556Z,216.00
2023-03-19T05:58:02.643Z,244.00
2023-03-19T05:59:02.626Z,276.00
2023-03-19T06:00:02.636Z,308.00
2023-03-19T06:01:02.621Z,340.00
2023-03-19T06:02:02.594Z,372.00
2023-03-19T06:03:02.658Z,412.00
2023-03-19T06:04:05.492Z,444.00
2023-03-19T06:05:02.568Z,480.00
2023-03-19T06:06:02.555Z,512.00
2023-03-19T06:07:02.539Z,572.00
2023-03-19T06:08:02.527Z,736.00
2023-03-19T06:09:02.528Z,1368.00
2023-03-19T06:10:02.506Z,1308.00
2023-03-19T06:11:02.494Z,1048.00
2023-03-19T06:12:02.480Z,2132.00
2023-03-19T06:13:02.475Z,2040.00
2023-03-19T06:14:02.458Z,1804.00
2023-03-19T06:15:02.469Z,1740.00
2023-03-19T06:16:02.484Z,1880.00
2023-03-19T06:17:02.433Z,1808.00
2023-03-19T06:18:02.414Z,1908.00
2023-03-19T06:19:02.411Z,1536.00
2023-03-19T06:20:02.395Z,1528.00
2023-03-19T06:21:02.395Z,2372.00
2023-03-19T06:22:02.369Z,3056.00
2023-03-19T06:23:02.357Z,2340.00
2023-03-19T06:24:02.353Z,3204.00
2023-03-19T06:25:02.337Z,3256.00
2023-03-19T06:26:02.324Z,2944.00
2023-03-19T06:27:02.316Z,2804.00
2023-03-19T06:28:02.306Z,3156.00
2023-03-19T06:29:02.291Z,3032.00
2023-03-19T06:30:02.290Z,1628.00
2023-03-19T06:31:02.434Z,1748.00
2023-03-19T06:32:02.290Z,1440.00
2023-03-19T06:33:02.320Z,1416.00
2023-03-19T06:34:02.238Z,1464.00
2023-03-19T06:35:02.227Z,1776.00
2023-03-19T06:36:02.290Z,1464.00
2023-03-19T06:37:02.206Z,1500.00
2023-03-19T06:38:02.198Z,1580.00
2023-03-19T06:39:02.190Z,1824.00
2023-03-19T06:40:02.176Z,1552.00
2023-03-19T06:41:02.166Z,1556.00
2023-03-19T06:42:02.221Z,1564.00
2023-03-19T06:43:02.139Z,1568.00
2023-03-19T06:44:02.142Z,1584.00
2023-03-19T06:45:02.118Z,1576.00
2023-03-19T06:46:02.178Z,1532.00
2023-03-19T06:47:02.107Z,1448.00
2023-03-19T06:48:02.116Z,1324.00
2023-03-19T06:49:02.075Z,1144.00
2023-03-19T06:50:02.061Z,1000.00
2023-03-19T06:51:02.072Z,976.00
2023-03-19T06:52:02.041Z,996.00
2023-03-19T06:53:02.024Z,1164.00
2023-03-19T06:54:02.021Z,932.00
2023-03-19T06:55:02.004Z,1052.00
2023-03-19T06:56:01.998Z,764.00
2023-03-19T06:57:01.991Z,760.00
2023-03-19T06:58:01.972Z,760.00
2023-03-19T06:59:01.961Z,772.00
2023-03-19T07:00:01.947Z,764.00
2023-03-19T07:01:01.992Z,728.00
2023-03-19T07:02:01.928Z,668.00
2023-03-19T07:03:01.914Z,620.00
2023-03-19T07:04:02.083Z,548.00
2023-03-19T07:05:01.904Z,492.00
2023-03-19T07:06:01.885Z,456.00
2023-03-19T07:07:01.872Z,440.00
2023-03-19T07:08:01.868Z,412.00
2023-03-19T07:09:01.844Z,376.00
2023-03-19T07:10:01.844Z,352.00
2023-03-19T07:11:01.824Z,352.00
2023-03-19T07:12:01.811Z,384.00
2023-03-19T07:13:01.832Z,456.00
2023-03-19T07:14:01.792Z,552.00
2023-03-19T07:15:01.785Z,652.00
2023-03-19T07:16:01.776Z,756.00
2023-03-19T07:17:01.764Z,864.00
2023-03-19T07:18:01.755Z,948.00
2023-03-19T07:19:01.732Z,976.00
2023-03-19T07:20:01.845Z,880.00
2023-03-19T07:21:01.710Z,780.00
2023-03-19T07:22:01.708Z,692.00
2023-03-19T07:23:01.738Z,656.00
2023-03-19T07:24:01.677Z,672.00
2023-03-19T07:25:01.680Z,720.00
2023-03-19T07:26:01.656Z,804.00
2023-03-19T07:27:01.642Z,848.00
2023-03-19T07:28:01.631Z,776.00
2023-03-19T07:29:01.620Z,696.00
2023-03-19T07:30:01.607Z,632.00
2023-03-19T07:31:01.598Z,568.00
2023-03-19T07:32:01.710Z,496.00
2023-03-19T07:33:01.626Z,432.00
2023-03-19T07:34:01.568Z,408.00
2023-03-19T07:35:01.553Z,424.00
2023-03-19T07:36:01.674Z,464.00
2023-03-19T07:37:01.527Z,552.00
2023-03-19T07:38:01.516Z,700.00
2023-03-19T07:39:01.512Z,932.00
2023-03-19T07:40:01.530Z,1204.00
2023-03-19T07:41:02.924Z,1464.00
2023-03-19T07:42:01.480Z,1696.00
2023-03-19T07:43:01.471Z,1744.00
2023-03-19T07:44:01.455Z,2484.00
2023-03-19T07:45:01.451Z,3004.00
2023-03-19T07:46:01.615Z,2348.00
2023-03-19T07:47:01.417Z,2988.00
2023-03-19T07:48:01.404Z,3452.00
2023-03-19T07:49:01.403Z,1920.00
2023-03-19T07:50:01.383Z,1964.00
2023-03-19T07:51:01.369Z,2100.00
2023-03-19T07:52:01.393Z,2124.00
2023-03-19T07:53:01.361Z,3508.00
2023-03-19T07:54:01.337Z,2936.00
2023-03-19T07:55:01.324Z,2440.00
2023-03-19T07:56:01.311Z,2184.00
2023-03-19T07:57:01.300Z,2552.00
2023-03-19T07:58:01.294Z,3672.00
2023-03-19T07:59:01.277Z,3296.00
2023-03-19T08:00:01.277Z,2652.00
2023-03-19T08:01:01.267Z,2112.00
2023-03-19T08:02:01.281Z,1940.00
2023-03-19T08:03:01.238Z,1788.00
2023-03-19T08:04:01.220Z,1468.00
2023-03-19T08:05:01.209Z,1324.00
2023-03-19T08:06:01.201Z,1152.00
2023-03-19T08:07:01.195Z,1036.00
2023-03-19T08:08:01.236Z,952.00
2023-03-19T08:09:01.172Z,912.00
2023-03-19T08:10:01.151Z,908.00
2023-03-19T08:11:01.149Z,940.00
2023-03-19T08:12:01.146Z,1028.00
2023-03-19T08:13:01.127Z,1152.00
2023-03-19T08:14:01.108Z,1340.00
2023-03-19T08:15:01.299Z,1612.00
2023-03-19T08:16:01.169Z,1772.00
2023-03-19T08:17:01.109Z,1816.00
2023-03-19T08:18:01.068Z,2288.00
2023-03-19T08:19:01.057Z,1436.00
2023-03-19T08:20:01.071Z,1308.00
2023-03-19T08:21:01.022Z,1212.00
2023-03-19T08:22:01.024Z,1136.00
2023-03-19T08:23:01.023Z,1064.00
2023-03-19T08:24:03.760Z,1004.00
2023-03-19T08:25:01.023Z,968.00
2023-03-19T08:26:00.974Z,964.00
2023-03-19T08:27:00.963Z,952.00
2023-03-19T08:28:01.254Z,928.00
2023-03-19T08:29:00.950Z,900.00
2023-03-19T08:30:00.931Z,852.00
2023-03-19T08:31:00.941Z,772.00
2023-03-19T08:32:00.941Z,684.00
2023-03-19T08:33:00.949Z,588.00
2023-03-19T08:34:00.885Z,500.00
2023-03-19T08:35:00.878Z,420.00
2023-03-19T08:36:00.886Z,344.00
2023-03-19T08:37:00.851Z,288.00
2023-03-19T08:38:00.841Z,256.00
2023-03-19T08:39:00.821Z,240.00
2023-03-19T08:40:00.833Z,244.00
2023-03-19T08:41:00.802Z,252.00
2023-03-19T08:42:00.788Z,260.00
2023-03-19T08:43:00.777Z,264.00
2023-03-19T08:44:00.765Z,256.00
2023-03-19T08:45:00.765Z,252.00
2023-03-19T08:46:00.822Z,240.00
2023-03-19T08:47:00.734Z,228.00
2023-03-19T08:48:00.741Z,208.00
2023-03-19T08:49:00.710Z,196.00
2023-03-19T08:50:00.706Z,184.00
2023-03-19T08:51:00.698Z,172.00
2023-03-19T08:52:00.674Z,168.00
2023-03-19T08:53:00.672Z,164.00
2023-03-19T08:54:00.650Z,168.00
2023-03-19T08:55:00.674Z,164.00
2023-03-19T08:56:00.654Z,160.00
2023-03-19T08:57:00.617Z,156.00
2023-03-19T08:58:00.614Z,148.00
2023-03-19T08:59:00.595Z,140.00
2023-03-19T09:00:00.588Z,140.00
2023-03-19T09:01:00.572Z,140.00
2023-03-19T09:02:00.650Z,140.00
2023-03-19T09:03:00.555Z,136.00
2023-03-19T09:04:00.541Z,136.00
2023-03-19T09:05:00.535Z,132.00
2023-03-19T09:06:00.517Z,132.00
2023-03-19T09:07:00.505Z,136.00
2023-03-19T09:08:00.495Z,148.00
2023-03-19T09:09:02.521Z,160.00
2023-03-19T09:10:00.474Z,180.00
2023-03-19T09:11:00.507Z,208.00
2023-03-19T09:12:00.482Z,244.00
2023-03-19T09:13:00.437Z,296.00
2023-03-19T09:14:00.430Z,352.00
2023-03-19T09:15:00.433Z,412.00
2023-03-19T09:16:00.457Z,484.00
2023-03-19T09:17:00.396Z,576.00
2023-03-19T09:18:00.383Z,688.00
2023-03-19T09:19:00.377Z,820.00
2023-03-19T09:20:00.367Z,960.00
2023-03-19T09:21:00.349Z,1084.00
2023-03-19T09:22:00.344Z,1172.00
2023-03-19T09:23:00.334Z,1220.00
2023-03-19T09:24:00.322Z,1204.00
2023-03-19T09:25:00.351Z,1080.00
2023-03-19T09:26:00.298Z,924.00
2023-03-19T09:27:00.291Z,792.00
2023-03-19T09:28:00.314Z,724.00
2023-03-19T09:29:00.275Z,704.00
2023-03-19T09:30:00.261Z,696.00
2023-03-19T09:31:00.306Z,712.00
2023-03-19T09:32:00.243Z,756.00
2023-03-19T09:33:00.288Z,788.00
2023-03-19T09:34:00.205Z,788.00
2023-03-19T09:35:00.197Z,736.00
2023-03-19T09:36:00.282Z,684.00
2023-03-19T09:37:00.176Z,668.00
2023-03-19T09:38:00.181Z,696.00
2023-03-19T09:39:00.153Z,744.00
2023-03-19T09:40:00.145Z,772.00
2023-03-19T09:41:00.125Z,828.00
2023-03-19T09:42:00.190Z,928.00
2023-03-19T09:43:00.207Z,1120.00
2023-03-19T09:44:00.146Z,1484.00
2023-03-19T09:45:00.111Z,2148.00
2023-03-19T09:46:00.097Z,2888.00
2023-03-19T09:47:00.131Z,3384.00
2023-03-19T09:48:00.061Z,3628.00
2023-03-19T09:49:00.061Z,3652.00
2023-03-19T09:50:00.036Z,3424.00
2023-03-19T09:51:00.019Z,3120.00
2023-03-19T09:52:00.008Z,2828.00
2023-03-19T09:52:59.993Z,2460.00
2023-03-19T09:53:59.986Z,2184.00
2023-03-19T09:54:59.968Z,2020.00
2023-03-19T09:55:59.960Z,1960.00
2023-03-19T09:56:59.952Z,1992.00
2023-03-19T09:57:59.933Z,2016.00
2023-03-19T09:58:59.950Z,2004.00
2023-03-19T09:59:59.937Z,1992.00
2023-03-19T10:00:59.901Z,1952.00
2023-03-19T10:02:00.008Z,1944.00
2023-03-19T10:03:02.651Z,2008.00
2023-03-19T10:03:59.893Z,2148.00
2023-03-19T10:04:59.883Z,2236.00
2023-03-19T10:05:59.853Z,2296.00
2023-03-19T10:06:59.837Z,2380.00
2023-03-19T10:07:59.827Z,2536.00
2023-03-19T10:08:59.811Z,2760.00
2023-03-19T10:09:59.799Z,2980.00
2023-03-19T10:10:59.801Z,3116.00
2023-03-19T10:11:59.786Z,3208.00
2023-03-19T10:12:59.783Z,3292.00
2023-03-19T10:13:59.776Z,3280.00
2023-03-19T10:14:59.754Z,3188.00
2023-03-19T10:15:59.803Z,3012.00
2023-03-19T10:16:59.720Z,2788.00
2023-03-19T10:17:59.711Z,2520.00
2023-03-19T10:19:00.204Z,2308.00
2023-03-19T10:19:59.688Z,2192.00
2023-03-19T10:20:59.678Z,2116.00
2023-03-19T10:21:59.666Z,2084.00
2023-03-19T10:22:59.657Z,2100.00
2023-03-19T10:23:59.661Z,2144.00
2023-03-19T10:24:59.632Z,2212.00
2023-03-19T10:25:59.622Z,2280.00
2023-03-19T10:26:59.627Z,2376.00
2023-03-19T10:27:59.596Z,2500.00
2023-03-19T10:28:59.601Z,2676.00
2023-03-19T10:29:59.598Z,4612.00
2023-03-19T10:31:02.138Z,3044.00
2023-03-19T10:31:59.728Z,3152.00
2023-03-19T10:32:59.641Z,3348.00
2023-03-19T10:33:59.541Z,3672.00
2023-03-19T10:34:59.553Z,7060.00
2023-03-19T10:35:59.584Z,11420.00
2023-03-19T10:36:59.504Z,8716.00
2023-03-19T10:37:59.496Z,12104.00
2023-03-19T10:38:59.481Z,7452.00
2023-03-19T10:39:59.482Z,10692.00
2023-03-19T10:40:59.463Z,4948.00
2023-03-19T10:41:59.485Z,4548.00
2023-03-19T10:42:59.450Z,4104.00
2023-03-19T10:43:59.422Z,4024.00
2023-03-19T10:44:59.414Z,4060.00
2023-03-19T10:45:59.434Z,4052.00
2023-03-19T10:46:59.394Z,4080.00
2023-03-19T10:47:59.403Z,4032.00
2023-03-19T10:48:59.385Z,4064.00
2023-03-19T10:49:59.361Z,4496.00
2023-03-19T10:50:59.348Z,5472.00
2023-03-19T10:51:59.342Z,5848.00
2023-03-19T10:52:59.334Z,5892.00
2023-03-19T10:53:59.337Z,8500.00
2023-03-19T10:54:59.298Z,11588.00
2023-03-19T10:55:59.286Z,5752.00
2023-03-19T10:56:59.288Z,5008.00
2023-03-19T10:57:59.266Z,4636.00
2023-03-19T10:58:59.257Z,4240.00
2023-03-19T11:00:01.500Z,4316.00
2023-03-19T11:00:59.268Z,4152.00
2023-03-19T11:01:59.227Z,4192.00
2023-03-19T11:02:59.236Z,4572.00
2023-03-19T11:03:59.271Z,4588.00
2023-03-19T11:04:59.184Z,4548.00
2023-03-19T11:05:59.171Z,5520.00
2023-03-19T11:06:59.163Z,6360.00
2023-03-19T11:07:59.155Z,6020.00
2023-03-19T11:08:59.167Z,8456.00
2023-03-19T11:09:59.289Z,7752.00
2023-03-19T11:10:59.126Z,8916.00
2023-03-19T11:11:59.105Z,11168.00
2023-03-19T11:12:59.094Z,9540.00
2023-03-19T11:14:05.105Z,6048.00
2023-03-19T11:14:59.081Z,5496.00
2023-03-19T11:15:59.061Z,5196.00
2023-03-19T11:16:59.106Z,5180.00
2023-03-19T11:17:59.043Z,5960.00
2023-03-19T11:18:59.027Z,5036.00
2023-03-19T11:19:59.054Z,6004.00
2023-03-19T11:20:59.017Z,5024.00
2023-03-19T11:21:58.998Z,4748.00
2023-03-19T11:22:58.988Z,4588.00
2023-03-19T11:23:58.973Z,5056.00
2023-03-19T11:24:58.966Z,5320.00
2023-03-19T11:25:58.954Z,5476.00
2023-03-19T11:26:58.943Z,4168.00
2023-03-19T11:27:58.935Z,3956.00
2023-03-19T11:28:58.915Z,3856.00
2023-03-19T11:29:58.925Z,3924.00
2023-03-19T11:30:58.907Z,3996.00
2023-03-19T11:32:02.002Z,3928.00
2023-03-19T11:32:58.924Z,3804.00
2023-03-19T11:33:58.860Z,3656.00
2023-03-19T11:34:58.855Z,3540.00
2023-03-19T11:35:58.886Z,3464.00
2023-03-19T11:36:58.826Z,3380.00
2023-03-19T11:37:58.820Z,3284.00
2023-03-19T11:38:58.811Z,3208.00
2023-03-19T11:39:58.797Z,3184.00
2023-03-19T11:40:58.784Z,3208.00
2023-03-19T11:41:58.788Z,3220.00
2023-03-19T11:42:58.769Z,3200.00
2023-03-19T11:43:58.753Z,3164.00
2023-03-19T11:44:58.747Z,3148.00
2023-03-19T11:45:58.812Z,3120.00
2023-03-19T11:46:58.725Z,3152.00
2023-03-19T11:47:58.710Z,3124.00
2023-03-19T11:48:58.701Z,3032.00
2023-03-19T11:49:58.685Z,2952.00
2023-03-19T11:50:58.681Z,2852.00
2023-03-19T11:51:58.690Z,2716.00
2023-03-19T11:52:58.650Z,2592.00
2023-03-19T11:54:04.654Z,2492.00
2023-03-19T11:54:58.633Z,2424.00
2023-03-19T11:55:58.636Z,2352.00
2023-03-19T11:56:58.610Z,2292.00
2023-03-19T11:57:58.610Z,2236.00
2023-03-19T11:58:58.601Z,2184.00
2023-03-19T11:59:58.575Z,2136.00
2023-03-19T12:00:58.628Z,2104.00
2023-03-19T12:01:58.561Z,2080.00
2023-03-19T12:03:04.554Z,2072.00
2023-03-19T12:03:58.606Z,2064.00
2023-03-19T12:04:58.528Z,2048.00
2023-03-19T12:05:58.514Z,2028.00
2023-03-19T12:06:58.503Z,2000.00
2023-03-19T12:07:58.534Z,1968.00
2023-03-19T12:08:58.478Z,1944.00
2023-03-19T12:09:58.468Z,1928.00
2023-03-19T12:10:58.467Z,1912.00
2023-03-19T12:12:04.458Z,1892.00
2023-03-19T12:12:58.438Z,1884.00
2023-03-19T12:13:58.423Z,1868.00
2023-03-19T12:14:58.422Z,1860.00
2023-03-19T12:15:58.461Z,1848.00
2023-03-19T12:16:58.391Z,1844.00
2023-03-19T12:17:58.433Z,1836.00
2023-03-19T12:18:58.369Z,1840.00
2023-03-19T12:19:58.356Z,1832.00
2023-03-19T12:20:58.348Z,1812.00
2023-03-19T12:21:58.339Z,1792.00
2023-03-19T12:22:58.324Z,1780.00
2023-03-19T12:23:58.341Z,1788.00
2023-03-19T12:24:58.303Z,1808.00
2023-03-19T12:25:58.303Z,1844.00
2023-03-19T12:26:58.284Z,1876.00
2023-03-19T12:27:58.274Z,1884.00
2023-03-19T12:28:58.256Z,1880.00
2023-03-19T12:29:58.252Z,1860.00
2023-03-19T12:30:58.284Z,1848.00
2023-03-19T12:31:58.227Z,1860.00
2023-03-19T12:33:04.271Z,1880.00
2023-03-19T12:33:58.206Z,1932.00
2023-03-19T12:34:58.189Z,1992.00
2023-03-19T12:35:58.216Z,2056.00
2023-03-19T12:36:58.166Z,2120.00
2023-03-19T12:37:58.160Z,2184.00
2023-03-19T12:38:58.145Z,2240.00
2023-03-19T12:39:58.160Z,2288.00
2023-03-19T12:40:58.125Z,2324.00